<?xml version="1.0" encoding="utf-8"?>
<gpx xmlns:xsi="http://www.w3.org/2001/XMLSchema-instance" xmlns:xsd="http://www.w3.org/2001/XMLSchema" version="1.1" creator="Shapelink.com" xmlns="http://www.topografix.com/GPX/1/1" xmlns:gpxtpx="http://www.garmin.com/xmlschemas/TrackPointExtension/v1">
  <metadata>
    <name>Cycling 17.67 km, 2020-06-20</name>
    <desc></desc>
    <author><name>Marian Moron</name></author> 
    <time>2020-06-20T12:52:03Z</time>
  </metadata>
  <trk>
    <name>Cycling 17.67 km, 2020-06-20</name>
    <trkseg>
      <trkpt lat="51.227836513013" lon="4.458723625635">
        <ele>16.8</ele>
        <time>2020-06-20T12:52:03Z</time>
      </trkpt>
      <trkpt lat="51.228388042033" lon="4.458464960201">
        <ele>16.6</ele>
        <time>2020-06-20T12:52:20Z</time>
      </trkpt>
      <trkpt lat="51.228930183325" lon="4.458254993606">
        <ele>2.4</ele>
        <time>2020-06-20T12:52:35Z</time>
      </trkpt>
      <trkpt lat="51.229471151151" lon="4.458009739212">
        <ele>2.2</ele>
        <time>2020-06-20T12:53:00Z</time>
      </trkpt>
      <trkpt lat="51.22962630012" lon="4.45793698432">
        <ele>1.4</ele>
        <time>2020-06-20T12:53:09Z</time>
      </trkpt>
      <trkpt lat="51.228967231323" lon="4.44860206229">
        <ele>0</ele>
        <time>2020-06-20T13:24:15Z</time>
      </trkpt>
      <trkpt lat="51.228759276384" lon="4.447814498966">
        <ele>4</ele>
        <time>2020-06-20T13:24:37Z</time>
      </trkpt>
      <trkpt lat="51.228424168022" lon="4.447226089586">
        <ele>10.6</ele>
        <time>2020-06-20T13:25:00Z</time>
      </trkpt>
      <trkpt lat="51.228272204175" lon="4.447215947487">
        <ele>11.4</ele>
        <time>2020-06-20T13:25:08Z</time>
      </trkpt>
      <trkpt lat="51.228243538077" lon="4.447166913372">
        <ele>11.2</ele>
        <time>2020-06-20T13:25:11Z</time>
      </trkpt>
      <trkpt lat="51.228223756793" lon="4.447122405483">
        <ele>11.4</ele>
        <time>2020-06-20T13:25:15Z</time>
      </trkpt>
      <trkpt lat="51.22777725298" lon="4.447636970324">
        <ele>12.8</ele>
        <time>2020-06-20T13:25:37Z</time>
      </trkpt>
      <trkpt lat="51.227360504912" lon="4.448223451867">
        <ele>11.8</ele>
        <time>2020-06-20T13:25:58Z</time>
      </trkpt>
      <trkpt lat="51.226968651087" lon="4.448829714694">
        <ele>12.6</ele>
        <time>2020-06-20T13:26:19Z</time>
      </trkpt>
      <trkpt lat="51.226607726473" lon="4.449370179606">
        <ele>10</ele>
        <time>2020-06-20T13:26:40Z</time>
      </trkpt>
      <trkpt lat="51.226318299466" lon="4.448901044663">
        <ele>5.4</ele>
        <time>2020-06-20T13:26:56Z</time>
      </trkpt>
      <trkpt lat="51.226286364427" lon="4.44891722173">
        <ele>5</ele>
        <time>2020-06-20T13:26:58Z</time>
      </trkpt>
      <trkpt lat="51.22593491136" lon="4.449568998274">
        <ele>3</ele>
        <time>2020-06-20T13:27:17Z</time>
      </trkpt>
      <trkpt lat="51.225391009869" lon="4.449719956293">
        <ele>0</ele>
        <time>2020-06-20T13:27:36Z</time>
      </trkpt>
      <trkpt lat="51.224876361209" lon="4.450101332743">
        <ele>0</ele>
        <time>2020-06-20T13:27:52Z</time>
      </trkpt>
      <trkpt lat="51.224499510985" lon="4.450718324402">
        <ele>0</ele>
        <time>2020-06-20T13:28:05Z</time>
      </trkpt>
      <trkpt lat="51.224081757089" lon="4.451304722126">
        <ele>0</ele>
        <time>2020-06-20T13:28:22Z</time>
      </trkpt>
      <trkpt lat="51.22353684977" lon="4.451290053801">
        <ele>0</ele>
        <time>2020-06-20T13:28:41Z</time>
      </trkpt>
      <trkpt lat="51.22299286446" lon="4.451154853754">
        <ele>0</ele>
        <time>2020-06-20T13:29:02Z</time>
      </trkpt>
      <trkpt lat="51.222459021249" lon="4.451119733593">
        <ele>0</ele>
        <time>2020-06-20T13:29:23Z</time>
      </trkpt>
      <trkpt lat="51.221931296825" lon="4.451406813668">
        <ele>0</ele>
        <time>2020-06-20T13:29:44Z</time>
      </trkpt>
      <trkpt lat="51.221415558518" lon="4.451642261239">
        <ele>2.4</ele>
        <time>2020-06-20T13:30:09Z</time>
      </trkpt>
      <trkpt lat="51.220865622059" lon="4.451801098244">
        <ele>9.6</ele>
        <time>2020-06-20T13:30:32Z</time>
      </trkpt>
      <trkpt lat="51.220323313129" lon="4.451946105114">
        <ele>14.4</ele>
        <time>2020-06-20T13:30:49Z</time>
      </trkpt>
      <trkpt lat="51.219779998371" lon="4.452090273794">
        <ele>21.2</ele>
        <time>2020-06-20T13:31:06Z</time>
      </trkpt>
      <trkpt lat="51.21923944964" lon="4.45213503314">
        <ele>8.8</ele>
        <time>2020-06-20T13:31:22Z</time>
      </trkpt>
      <trkpt lat="51.219046414483" lon="4.452048531932">
        <ele>3.8</ele>
        <time>2020-06-20T13:31:27Z</time>
      </trkpt>
      <trkpt lat="51.218911801169" lon="4.451829764342">
        <ele>3</ele>
        <time>2020-06-20T13:31:31Z</time>
      </trkpt>
      <trkpt lat="51.218826054332" lon="4.451756925631">
        <ele>2.8</ele>
        <time>2020-06-20T13:31:33Z</time>
      </trkpt>
      <trkpt lat="51.218732931423" lon="4.451712501561">
        <ele>2.8</ele>
        <time>2020-06-20T13:31:35Z</time>
      </trkpt>
      <trkpt lat="51.218515588756" lon="4.451703449109">
        <ele>0.4</ele>
        <time>2020-06-20T13:31:39Z</time>
      </trkpt>
      <trkpt lat="51.218241416807" lon="4.452381544819">
        <ele>4.6</ele>
        <time>2020-06-20T13:31:52Z</time>
      </trkpt>
      <trkpt lat="51.218174277788" lon="4.453256866636">
        <ele>8.8</ele>
        <time>2020-06-20T13:32:07Z</time>
      </trkpt>
      <trkpt lat="51.218136140143" lon="4.454116765757">
        <ele>9</ele>
        <time>2020-06-20T13:32:27Z</time>
      </trkpt>
      <trkpt lat="51.218119124886" lon="4.455002062035">
        <ele>10</ele>
        <time>2020-06-20T13:32:47Z</time>
      </trkpt>
      <trkpt lat="51.218089201503" lon="4.455882245354">
        <ele>16.8</ele>
        <time>2020-06-20T13:33:06Z</time>
      </trkpt>
      <trkpt lat="51.218060870681" lon="4.456752202755">
        <ele>19.2</ele>
        <time>2020-06-20T13:33:24Z</time>
      </trkpt>
      <trkpt lat="51.21800144301" lon="4.457653257005">
        <ele>10.4</ele>
        <time>2020-06-20T13:33:45Z</time>
      </trkpt>
      <trkpt lat="51.217984763029" lon="4.458544169156">
        <ele>11</ele>
        <time>2020-06-20T13:34:04Z</time>
      </trkpt>
      <trkpt lat="51.217957940949" lon="4.459419910068">
        <ele>14.8</ele>
        <time>2020-06-20T13:34:24Z</time>
      </trkpt>
      <trkpt lat="51.217953079447" lon="4.460283748682">
        <ele>16</ele>
        <time>2020-06-20T13:34:44Z</time>
      </trkpt>
      <trkpt lat="51.218008567625" lon="4.461166278933">
        <ele>5.2</ele>
        <time>2020-06-20T13:34:58Z</time>
      </trkpt>
      <trkpt lat="51.217879570184" lon="4.46203238066">
        <ele>3.2</ele>
        <time>2020-06-20T13:35:14Z</time>
      </trkpt>
      <trkpt lat="51.217805558007" lon="4.462925472105">
        <ele>2.2</ele>
        <time>2020-06-20T13:35:31Z</time>
      </trkpt>
      <trkpt lat="51.217745711241" lon="4.463818815007">
        <ele>9.4</ele>
        <time>2020-06-20T13:35:50Z</time>
      </trkpt>
      <trkpt lat="51.217660718775" lon="4.464693969186">
        <ele>13</ele>
        <time>2020-06-20T13:36:07Z</time>
      </trkpt>
      <trkpt lat="51.217683601362" lon="4.465585048975">
        <ele>14.8</ele>
        <time>2020-06-20T13:36:23Z</time>
      </trkpt>
      <trkpt lat="51.217659712947" lon="4.466490797089">
        <ele>17.8</ele>
        <time>2020-06-20T13:36:39Z</time>
      </trkpt>
      <trkpt lat="51.217612858126" lon="4.467356312083">
        <ele>18.8</ele>
        <time>2020-06-20T13:36:57Z</time>
      </trkpt>
      <trkpt lat="51.217601374923" lon="4.468248565338">
        <ele>7</ele>
        <time>2020-06-20T13:37:13Z</time>
      </trkpt>
      <trkpt lat="51.217551167342" lon="4.469105698432">
        <ele>4.6</ele>
        <time>2020-06-20T13:37:25Z</time>
      </trkpt>
      <trkpt lat="51.2175328948" lon="4.469974482367">
        <ele>8.8</ele>
        <time>2020-06-20T13:37:43Z</time>
      </trkpt>
      <trkpt lat="51.21748763254" lon="4.470871261848">
        <ele>11.6</ele>
        <time>2020-06-20T13:38:00Z</time>
      </trkpt>
      <trkpt lat="51.217392414156" lon="4.471756055212">
        <ele>14.2</ele>
        <time>2020-06-20T13:38:19Z</time>
      </trkpt>
      <trkpt lat="51.217405154644" lon="4.472615032324">
        <ele>12.6</ele>
        <time>2020-06-20T13:38:35Z</time>
      </trkpt>
      <trkpt lat="51.217327789707" lon="4.473466717183">
        <ele>18.4</ele>
        <time>2020-06-20T13:38:51Z</time>
      </trkpt>
      <trkpt lat="51.21727221771" lon="4.474368274347">
        <ele>20</ele>
        <time>2020-06-20T13:39:08Z</time>
      </trkpt>
      <trkpt lat="51.217275989565" lon="4.475250972236">
        <ele>15.6</ele>
        <time>2020-06-20T13:39:25Z</time>
      </trkpt>
      <trkpt lat="51.217174065661" lon="4.476130485003">
        <ele>9.4</ele>
        <time>2020-06-20T13:39:41Z</time>
      </trkpt>
      <trkpt lat="51.217146573029" lon="4.477040591705">
        <ele>11.2</ele>
        <time>2020-06-20T13:39:56Z</time>
      </trkpt>
      <trkpt lat="51.217114889447" lon="4.47792446306">
        <ele>10</ele>
        <time>2020-06-20T13:40:12Z</time>
      </trkpt>
      <trkpt lat="51.217072141757" lon="4.478832390468">
        <ele>11.8</ele>
        <time>2020-06-20T13:40:27Z</time>
      </trkpt>
      <trkpt lat="51.217042218374" lon="4.479730678691">
        <ele>13.2</ele>
        <time>2020-06-20T13:40:44Z</time>
      </trkpt>
      <trkpt lat="51.217018665235" lon="4.480621423204">
        <ele>7.6</ele>
        <time>2020-06-20T13:41:03Z</time>
      </trkpt>
      <trkpt lat="51.217004332186" lon="4.481350564685">
        <ele>5.4</ele>
        <time>2020-06-20T13:41:25Z</time>
      </trkpt>
      <trkpt lat="51.216989244766" lon="4.481380739525">
        <ele>2.2</ele>
        <time>2020-06-20T13:42:29Z</time>
      </trkpt>
      <trkpt lat="51.216995950286" lon="4.48142222993">
        <ele>2.2</ele>
        <time>2020-06-20T13:42:31Z</time>
      </trkpt>
      <trkpt lat="51.216993603354" lon="4.48184635407">
        <ele>3.4</ele>
        <time>2020-06-20T13:42:45Z</time>
      </trkpt>
      <trkpt lat="51.217027214773" lon="4.481902596619">
        <ele>3</ele>
        <time>2020-06-20T13:42:49Z</time>
      </trkpt>
      <trkpt lat="51.217024364927" lon="4.481921455894">
        <ele>3.2</ele>
        <time>2020-06-20T13:42:57Z</time>
      </trkpt>
      <trkpt lat="51.217042805107" lon="4.482018015382">
        <ele>4.6</ele>
        <time>2020-06-20T13:43:36Z</time>
      </trkpt>
      <trkpt lat="51.217045990229" lon="4.482195627843">
        <ele>5.4</ele>
        <time>2020-06-20T13:43:42Z</time>
      </trkpt>
      <trkpt lat="51.216969798758" lon="4.482368630259">
        <ele>4.8</ele>
        <time>2020-06-20T13:43:48Z</time>
      </trkpt>
      <trkpt lat="51.216928727448" lon="4.483222745869">
        <ele>4.6</ele>
        <time>2020-06-20T13:44:08Z</time>
      </trkpt>
      <trkpt lat="51.21691933972" lon="4.48411449621">
        <ele>3.4</ele>
        <time>2020-06-20T13:44:29Z</time>
      </trkpt>
      <trkpt lat="51.216878436048" lon="4.485008677302">
        <ele>3.8</ele>
        <time>2020-06-20T13:44:49Z</time>
      </trkpt>
      <trkpt lat="51.21681121321" lon="4.485865978034">
        <ele>3.4</ele>
        <time>2020-06-20T13:45:09Z</time>
      </trkpt>
      <trkpt lat="51.216832251779" lon="4.486741132213">
        <ele>4.2</ele>
        <time>2020-06-20T13:45:30Z</time>
      </trkpt>
      <trkpt lat="51.217130479781" lon="4.486780946238">
        <ele>3.6</ele>
        <time>2020-06-20T13:45:49Z</time>
      </trkpt>
      <trkpt lat="51.217188063434" lon="4.487630200346">
        <ele>4.6</ele>
        <time>2020-06-20T13:46:12Z</time>
      </trkpt>
      <trkpt lat="51.217273391176" lon="4.488484902689">
        <ele>4.6</ele>
        <time>2020-06-20T13:46:29Z</time>
      </trkpt>
      <trkpt lat="51.217373219605" lon="4.489370282786">
        <ele>4.6</ele>
        <time>2020-06-20T13:46:48Z</time>
      </trkpt>
      <trkpt lat="51.217483609228" lon="4.490237557979">
        <ele>6.4</ele>
        <time>2020-06-20T13:47:03Z</time>
      </trkpt>
      <trkpt lat="51.217512945878" lon="4.491107012466">
        <ele>6</ele>
        <time>2020-06-20T13:47:19Z</time>
      </trkpt>
      <trkpt lat="51.218036395533" lon="4.491389650134">
        <ele>4.8</ele>
        <time>2020-06-20T13:47:37Z</time>
      </trkpt>
      <trkpt lat="51.218536711144" lon="4.491700870081">
        <ele>4.8</ele>
        <time>2020-06-20T13:48:02Z</time>
      </trkpt>
      <trkpt lat="51.218771069068" lon="4.492399752903">
        <ele>5.8</ele>
        <time>2020-06-20T13:48:28Z</time>
      </trkpt>
      <trkpt lat="51.219308013582" lon="4.492151481025">
        <ele>7.6</ele>
        <time>2020-06-20T13:48:54Z</time>
      </trkpt>
      <trkpt lat="51.219827188468" lon="4.491961547171">
        <ele>8</ele>
        <time>2020-06-20T13:49:16Z</time>
      </trkpt>
      <trkpt lat="51.220327084984" lon="4.491651165414">
        <ele>4.8</ele>
        <time>2020-06-20T13:49:39Z</time>
      </trkpt>
      <trkpt lat="51.220875847977" lon="4.49175878901">
        <ele>5.4</ele>
        <time>2020-06-20T13:49:57Z</time>
      </trkpt>
      <trkpt lat="51.221428885739" lon="4.49190798683">
        <ele>2.8</ele>
        <time>2020-06-20T13:50:10Z</time>
      </trkpt>
      <trkpt lat="51.221621166525" lon="4.491919134757">
        <ele>2.4</ele>
        <time>2020-06-20T13:50:16Z</time>
      </trkpt>
      <trkpt lat="51.221818057356" lon="4.492974918881">
        <ele>4.6</ele>
        <time>2020-06-20T13:50:37Z</time>
      </trkpt>
      <trkpt lat="51.221954849964" lon="4.493803553515">
        <ele>4.2</ele>
        <time>2020-06-20T13:50:53Z</time>
      </trkpt>
      <trkpt lat="51.22212533781" lon="4.494646269741">
        <ele>3.8</ele>
        <time>2020-06-20T13:51:09Z</time>
      </trkpt>
      <trkpt lat="51.222298591683" lon="4.495522597386">
        <ele>3.8</ele>
        <time>2020-06-20T13:51:26Z</time>
      </trkpt>
      <trkpt lat="51.222347709617" lon="4.495769863436">
        <ele>3.8</ele>
        <time>2020-06-20T13:51:30Z</time>
      </trkpt>
      <trkpt lat="51.222512162495" lon="4.496628337634">
        <ele>3.8</ele>
        <time>2020-06-20T13:51:45Z</time>
      </trkpt>
      <trkpt lat="51.222681393056" lon="4.497466695272">
        <ele>4.6</ele>
        <time>2020-06-20T13:52:00Z</time>
      </trkpt>
      <trkpt lat="51.22284115207" lon="4.498286193635">
        <ele>4.4</ele>
        <time>2020-06-20T13:52:15Z</time>
      </trkpt>
      <trkpt lat="51.22287887062" lon="4.498491550185">
        <ele>4.4</ele>
        <time>2020-06-20T13:52:19Z</time>
      </trkpt>
      <trkpt lat="51.22307919803" lon="4.499309455987">
        <ele>4.4</ele>
        <time>2020-06-20T13:52:36Z</time>
      </trkpt>
      <trkpt lat="51.223261588174" lon="4.500133229119">
        <ele>5.2</ele>
        <time>2020-06-20T13:52:53Z</time>
      </trkpt>
      <trkpt lat="51.223423777939" lon="4.500968988368">
        <ele>4.8</ele>
        <time>2020-06-20T13:53:07Z</time>
      </trkpt>
      <trkpt lat="51.223590661568" lon="4.501810950223">
        <ele>4.6</ele>
        <time>2020-06-20T13:53:23Z</time>
      </trkpt>
      <trkpt lat="51.223752096962" lon="4.502646793291">
        <ele>6</ele>
        <time>2020-06-20T13:53:38Z</time>
      </trkpt>
      <trkpt lat="51.223921914256" lon="4.503472410441">
        <ele>7.6</ele>
        <time>2020-06-20T13:53:52Z</time>
      </trkpt>
      <trkpt lat="51.224104220581" lon="4.504345133869">
        <ele>6.2</ele>
        <time>2020-06-20T13:54:06Z</time>
      </trkpt>
      <trkpt lat="51.22427864792" lon="4.505190867579">
        <ele>6</ele>
        <time>2020-06-20T13:54:22Z</time>
      </trkpt>
      <trkpt lat="51.224446621196" lon="4.506043474447">
        <ele>6.6</ele>
        <time>2020-06-20T13:54:37Z</time>
      </trkpt>
      <trkpt lat="51.224564554529" lon="4.506352179824">
        <ele>7.6</ele>
        <time>2020-06-20T13:54:47Z</time>
      </trkpt>
      <trkpt lat="51.225077275352" lon="4.506616628769">
        <ele>22</ele>
        <time>2020-06-20T14:04:51Z</time>
      </trkpt>
      <trkpt lat="51.224960431666" lon="4.506706818013">
        <ele>21.6</ele>
        <time>2020-06-20T14:04:58Z</time>
      </trkpt>
      <trkpt lat="51.224962108046" lon="4.506723414175">
        <ele>21.6</ele>
        <time>2020-06-20T14:05:01Z</time>
      </trkpt>
      <trkpt lat="51.224924808591" lon="4.50678585933">
        <ele>21</ele>
        <time>2020-06-20T14:05:07Z</time>
      </trkpt>
      <trkpt lat="51.225059841" lon="4.507642321872">
        <ele>21.4</ele>
        <time>2020-06-20T14:05:29Z</time>
      </trkpt>
      <trkpt lat="51.225227311362" lon="4.508460730588">
        <ele>19</ele>
        <time>2020-06-20T14:05:45Z</time>
      </trkpt>
      <trkpt lat="51.225392099516" lon="4.509306967212">
        <ele>13.4</ele>
        <time>2020-06-20T14:06:03Z</time>
      </trkpt>
      <trkpt lat="51.225577171868" lon="4.510159322623">
        <ele>10.2</ele>
        <time>2020-06-20T14:06:21Z</time>
      </trkpt>
      <trkpt lat="51.225730812095" lon="4.511011091301">
        <ele>7.2</ele>
        <time>2020-06-20T14:06:38Z</time>
      </trkpt>
      <trkpt lat="51.225895097335" lon="4.511831092578">
        <ele>5.4</ele>
        <time>2020-06-20T14:06:55Z</time>
      </trkpt>
      <trkpt lat="51.22608578556" lon="4.512654698072">
        <ele>11.4</ele>
        <time>2020-06-20T14:07:13Z</time>
      </trkpt>
      <trkpt lat="51.226051671227" lon="4.513425916691">
        <ele>12.6</ele>
        <time>2020-06-20T14:07:34Z</time>
      </trkpt>
      <trkpt lat="51.226158791909" lon="4.51428849802">
        <ele>9.8</ele>
        <time>2020-06-20T14:07:53Z</time>
      </trkpt>
      <trkpt lat="51.226340092406" lon="4.515133561178">
        <ele>9.6</ele>
        <time>2020-06-20T14:08:13Z</time>
      </trkpt>
      <trkpt lat="51.22665491657" lon="4.515925147814">
        <ele>18.4</ele>
        <time>2020-06-20T14:08:31Z</time>
      </trkpt>
      <trkpt lat="51.226837977266" lon="4.516782029451">
        <ele>23.8</ele>
        <time>2020-06-20T14:08:49Z</time>
      </trkpt>
      <trkpt lat="51.226885586458" lon="4.517694147809">
        <ele>22</ele>
        <time>2020-06-20T14:09:08Z</time>
      </trkpt>
      <trkpt lat="51.226995054072" lon="4.518564691943">
        <ele>23.4</ele>
        <time>2020-06-20T14:09:25Z</time>
      </trkpt>
      <trkpt lat="51.227169732868" lon="4.519401037925">
        <ele>25.4</ele>
        <time>2020-06-20T14:09:42Z</time>
      </trkpt>
      <trkpt lat="51.227322618724" lon="4.52025138168">
        <ele>26</ele>
        <time>2020-06-20T14:09:57Z</time>
      </trkpt>
      <trkpt lat="51.227123548599" lon="4.520534438443">
        <ele>19</ele>
        <time>2020-06-20T14:10:02Z</time>
      </trkpt>
      <trkpt lat="51.226575204701" lon="4.52075848663">
        <ele>8</ele>
        <time>2020-06-20T14:10:15Z</time>
      </trkpt>
      <trkpt lat="51.226027028441" lon="4.521014888951">
        <ele>0.6</ele>
        <time>2020-06-20T14:10:30Z</time>
      </trkpt>
      <trkpt lat="51.225507853555" lon="4.521281852466">
        <ele>3</ele>
        <time>2020-06-20T14:10:45Z</time>
      </trkpt>
      <trkpt lat="51.224976776371" lon="4.52153465057">
        <ele>2.8</ele>
        <time>2020-06-20T14:11:01Z</time>
      </trkpt>
      <trkpt lat="51.224455673648" lon="4.521775043462">
        <ele>1.2</ele>
        <time>2020-06-20T14:11:17Z</time>
      </trkpt>
      <trkpt lat="51.22397438495" lon="4.52214904384">
        <ele>0</ele>
        <time>2020-06-20T14:11:32Z</time>
      </trkpt>
      <trkpt lat="51.223510279147" lon="4.522659333912">
        <ele>0</ele>
        <time>2020-06-20T14:11:46Z</time>
      </trkpt>
      <trkpt lat="51.22305572871" lon="4.523187142155">
        <ele>0.2</ele>
        <time>2020-06-20T14:12:03Z</time>
      </trkpt>
      <trkpt lat="51.222604698671" lon="4.523724086669">
        <ele>1</ele>
        <time>2020-06-20T14:12:19Z</time>
      </trkpt>
      <trkpt lat="51.222160290333" lon="4.524239405881">
        <ele>1.6</ele>
        <time>2020-06-20T14:12:34Z</time>
      </trkpt>
      <trkpt lat="51.221682270576" lon="4.524704098417">
        <ele>1.2</ele>
        <time>2020-06-20T14:12:54Z</time>
      </trkpt>
      <trkpt lat="51.221184720992" lon="4.525075668044">
        <ele>0</ele>
        <time>2020-06-20T14:13:11Z</time>
      </trkpt>
      <trkpt lat="51.220648949944" lon="4.52537858991">
        <ele>0</ele>
        <time>2020-06-20T14:13:28Z</time>
      </trkpt>
      <trkpt lat="51.220099600218" lon="4.525560896235">
        <ele>0</ele>
        <time>2020-06-20T14:13:44Z</time>
      </trkpt>
      <trkpt lat="51.219558297116" lon="4.525708250037">
        <ele>0</ele>
        <time>2020-06-20T14:13:58Z</time>
      </trkpt>
      <trkpt lat="51.219013557435" lon="4.525932130586">
        <ele>0</ele>
        <time>2020-06-20T14:14:15Z</time>
      </trkpt>
      <trkpt lat="51.218490191599" lon="4.526151149633">
        <ele>0</ele>
        <time>2020-06-20T14:14:31Z</time>
      </trkpt>
      <trkpt lat="51.217951403067" lon="4.526366145368">
        <ele>0</ele>
        <time>2020-06-20T14:14:48Z</time>
      </trkpt>
      <trkpt lat="51.217554771559" lon="4.526505368727">
        <ele>0</ele>
        <time>2020-06-20T14:15:01Z</time>
      </trkpt>
      <trkpt lat="51.217529122945" lon="4.526424986306">
        <ele>0</ele>
        <time>2020-06-20T14:15:03Z</time>
      </trkpt>
      <trkpt lat="51.217489225101" lon="4.52555963895">
        <ele>0</ele>
        <time>2020-06-20T14:15:20Z</time>
      </trkpt>
      <trkpt lat="51.217434994208" lon="4.524670989912">
        <ele>2</ele>
        <time>2020-06-20T14:15:37Z</time>
      </trkpt>
      <trkpt lat="51.217372884329" lon="4.523789465489">
        <ele>2.6</ele>
        <time>2020-06-20T14:15:53Z</time>
      </trkpt>
      <trkpt lat="51.217336087788" lon="4.52343734187">
        <ele>2</ele>
        <time>2020-06-20T14:15:59Z</time>
      </trkpt>
      <trkpt lat="51.217287808044" lon="4.522532515765">
        <ele>1.8</ele>
        <time>2020-06-20T14:16:14Z</time>
      </trkpt>
      <trkpt lat="51.217074656327" lon="4.521706395701">
        <ele>1.6</ele>
        <time>2020-06-20T14:16:30Z</time>
      </trkpt>
      <trkpt lat="51.21691431058" lon="4.520871474642">
        <ele>1.4</ele>
        <time>2020-06-20T14:16:45Z</time>
      </trkpt>
      <trkpt lat="51.216809369192" lon="4.520025992389">
        <ele>1.2</ele>
        <time>2020-06-20T14:17:01Z</time>
      </trkpt>
      <trkpt lat="51.216640473907" lon="4.51919693866">
        <ele>1.4</ele>
        <time>2020-06-20T14:17:20Z</time>
      </trkpt>
      <trkpt lat="51.216307293382" lon="4.518548850152">
        <ele>0.2</ele>
        <time>2020-06-20T14:17:39Z</time>
      </trkpt>
      <trkpt lat="51.215754674715" lon="4.518663514544">
        <ele>0</ele>
        <time>2020-06-20T14:17:59Z</time>
      </trkpt>
      <trkpt lat="51.215199457659" lon="4.518814388744">
        <ele>3.2</ele>
        <time>2020-06-20T14:18:18Z</time>
      </trkpt>
      <trkpt lat="51.214653293055" lon="4.518904577988">
        <ele>3.4</ele>
        <time>2020-06-20T14:18:37Z</time>
      </trkpt>
      <trkpt lat="51.214084748778" lon="4.51899577306">
        <ele>3.2</ele>
        <time>2020-06-20T14:18:56Z</time>
      </trkpt>
      <trkpt lat="51.213650817815" lon="4.519067186848">
        <ele>4.4</ele>
        <time>2020-06-20T14:19:10Z</time>
      </trkpt>
      <trkpt lat="51.213626594124" lon="4.518988899902">
        <ele>4</ele>
        <time>2020-06-20T14:19:12Z</time>
      </trkpt>
      <trkpt lat="51.2136688389" lon="4.518120199786">
        <ele>2.4</ele>
        <time>2020-06-20T14:19:29Z</time>
      </trkpt>
      <trkpt lat="51.213738324851" lon="4.517264994529">
        <ele>1.2</ele>
        <time>2020-06-20T14:19:45Z</time>
      </trkpt>
      <trkpt lat="51.213847121913" lon="4.516385062667">
        <ele>1.4</ele>
        <time>2020-06-20T14:20:01Z</time>
      </trkpt>
      <trkpt lat="51.213964217056" lon="4.515501526588">
        <ele>1</ele>
        <time>2020-06-20T14:20:17Z</time>
      </trkpt>
      <trkpt lat="51.214004533995" lon="4.514600053243">
        <ele>0</ele>
        <time>2020-06-20T14:20:33Z</time>
      </trkpt>
      <trkpt lat="51.213860700591" lon="4.513733532421">
        <ele>0</ele>
        <time>2020-06-20T14:20:48Z</time>
      </trkpt>
      <trkpt lat="51.21369566098" lon="4.513232210982">
        <ele>0</ele>
        <time>2020-06-20T14:20:57Z</time>
      </trkpt>
      <trkpt lat="51.213516791234" lon="4.512724854575">
        <ele>0.6</ele>
        <time>2020-06-20T14:21:09Z</time>
      </trkpt>
      <trkpt lat="51.214041498174" lon="4.512523437518">
        <ele>2.8</ele>
        <time>2020-06-20T14:21:29Z</time>
      </trkpt>
      <trkpt lat="51.214575676661" lon="4.512364600513">
        <ele>3.4</ele>
        <time>2020-06-20T14:21:50Z</time>
      </trkpt>
      <trkpt lat="51.215099293954" lon="4.512121022499">
        <ele>0.4</ele>
        <time>2020-06-20T14:22:11Z</time>
      </trkpt>
      <trkpt lat="51.215634645907" lon="4.512205763508">
        <ele>0</ele>
        <time>2020-06-20T14:22:30Z</time>
      </trkpt>
      <trkpt lat="51.216037647659" lon="4.511630178435">
        <ele>4.8</ele>
        <time>2020-06-20T14:22:49Z</time>
      </trkpt>
      <trkpt lat="51.21632003387" lon="4.510883686421">
        <ele>4.8</ele>
        <time>2020-06-20T14:23:11Z</time>
      </trkpt>
      <trkpt lat="51.217014977199" lon="4.509869979435">
        <ele>0</ele>
        <time>2020-06-20T14:23:44Z</time>
      </trkpt>
      <trkpt lat="51.217478077174" lon="4.510248170763">
        <ele>0</ele>
        <time>2020-06-20T14:24:03Z</time>
      </trkpt>
      <trkpt lat="51.21791091849" lon="4.510636839466">
        <ele>1.8</ele>
        <time>2020-06-20T14:24:22Z</time>
      </trkpt>
      <trkpt lat="51.218349040403" lon="4.510132919638">
        <ele>2</ele>
        <time>2020-06-20T14:24:41Z</time>
      </trkpt>
      <trkpt lat="51.218793951655" lon="4.509619947358">
        <ele>0</ele>
        <time>2020-06-20T14:24:59Z</time>
      </trkpt>
      <trkpt lat="51.21922687679" lon="4.509224740773">
        <ele>0</ele>
        <time>2020-06-20T14:25:23Z</time>
      </trkpt>
      <trkpt lat="51.219761390553" lon="4.509097754988">
        <ele>7.6</ele>
        <time>2020-06-20T14:25:47Z</time>
      </trkpt>
      <trkpt lat="51.220308812442" lon="4.508868845299">
        <ele>10.8</ele>
        <time>2020-06-20T14:26:10Z</time>
      </trkpt>
      <trkpt lat="51.220682393725" lon="4.508714199244">
        <ele>6</ele>
        <time>2020-06-20T14:26:25Z</time>
      </trkpt>
      <trkpt lat="51.220612488679" lon="4.507871483018">
        <ele>1.8</ele>
        <time>2020-06-20T14:26:42Z</time>
      </trkpt>
      <trkpt lat="51.220491956957" lon="4.50701049425">
        <ele>5.6</ele>
        <time>2020-06-20T14:27:01Z</time>
      </trkpt>
      <trkpt lat="51.220392966718" lon="4.506140872125">
        <ele>5.2</ele>
        <time>2020-06-20T14:27:20Z</time>
      </trkpt>
      <trkpt lat="51.220333036133" lon="4.50528466104">
        <ele>1</ele>
        <time>2020-06-20T14:27:38Z</time>
      </trkpt>
      <trkpt lat="51.220499835943" lon="4.504606230054">
        <ele>0</ele>
        <time>2020-06-20T14:28:01Z</time>
      </trkpt>
      <trkpt lat="51.221031164584" lon="4.504330130268">
        <ele>2.6</ele>
        <time>2020-06-20T14:28:21Z</time>
      </trkpt>
      <trkpt lat="51.220986991971" lon="4.503498813426">
        <ele>3.2</ele>
        <time>2020-06-20T14:28:39Z</time>
      </trkpt>
      <trkpt lat="51.220819353971" lon="4.50265358263">
        <ele>4</ele>
        <time>2020-06-20T14:28:58Z</time>
      </trkpt>
      <trkpt lat="51.22073645698" lon="4.50177432132">
        <ele>5.4</ele>
        <time>2020-06-20T14:29:20Z</time>
      </trkpt>
      <trkpt lat="51.22067946006" lon="4.500904699195">
        <ele>4.4</ele>
        <time>2020-06-20T14:29:41Z</time>
      </trkpt>
      <trkpt lat="51.220606202254" lon="4.500055025992">
        <ele>2.2</ele>
        <time>2020-06-20T14:30:07Z</time>
      </trkpt>
      <trkpt lat="51.220611901946" lon="4.499168723886">
        <ele>0</ele>
        <time>2020-06-20T14:30:26Z</time>
      </trkpt>
      <trkpt lat="51.220825891853" lon="4.498380322372">
        <ele>0.8</ele>
        <time>2020-06-20T14:30:45Z</time>
      </trkpt>
      <trkpt lat="51.221140967474" lon="4.498212432915">
        <ele>0</ele>
        <time>2020-06-20T14:31:07Z</time>
      </trkpt>
      <trkpt lat="51.221167119002" lon="4.498196842581">
        <ele>0</ele>
        <time>2020-06-20T14:31:52Z</time>
      </trkpt>
      <trkpt lat="51.221174159798" lon="4.497952929291">
        <ele>0</ele>
        <time>2020-06-20T14:32:02Z</time>
      </trkpt>
      <trkpt lat="51.220668228314" lon="4.497638524222">
        <ele>0</ele>
        <time>2020-06-20T14:32:19Z</time>
      </trkpt>
      <trkpt lat="51.220142264089" lon="4.497314899063">
        <ele>0</ele>
        <time>2020-06-20T14:32:35Z</time>
      </trkpt>
      <trkpt lat="51.219632979845" lon="4.497012983025">
        <ele>0</ele>
        <time>2020-06-20T14:32:49Z</time>
      </trkpt>
      <trkpt lat="51.219106261249" lon="4.496703774734">
        <ele>0</ele>
        <time>2020-06-20T14:33:04Z</time>
      </trkpt>
      <trkpt lat="51.218572501857" lon="4.496371935313">
        <ele>0.6</ele>
        <time>2020-06-20T14:33:19Z</time>
      </trkpt>
      <trkpt lat="51.2180609545" lon="4.49609390769">
        <ele>1.8</ele>
        <time>2020-06-20T14:33:34Z</time>
      </trkpt>
      <trkpt lat="51.21756306964" lon="4.495805151235">
        <ele>3.4</ele>
        <time>2020-06-20T14:33:55Z</time>
      </trkpt>
      <trkpt lat="51.217535577008" lon="4.49570163477">
        <ele>3.4</ele>
        <time>2020-06-20T14:34:33Z</time>
      </trkpt>
      <trkpt lat="51.217962802451" lon="4.495179610038">
        <ele>5.6</ele>
        <time>2020-06-20T14:34:54Z</time>
      </trkpt>
      <trkpt lat="51.218030192927" lon="4.495056144651">
        <ele>4.2</ele>
        <time>2020-06-20T14:34:58Z</time>
      </trkpt>
      <trkpt lat="51.217758954643" lon="4.494318872727">
        <ele>2.6</ele>
        <time>2020-06-20T14:35:16Z</time>
      </trkpt>
      <trkpt lat="51.217657701291" lon="4.493470205352">
        <ele>2.4</ele>
        <time>2020-06-20T14:35:34Z</time>
      </trkpt>
      <trkpt lat="51.217605733511" lon="4.492570576025">
        <ele>1</ele>
        <time>2020-06-20T14:35:52Z</time>
      </trkpt>
      <trkpt lat="51.217526524556" lon="4.491687961955">
        <ele>1.2</ele>
        <time>2020-06-20T14:36:12Z</time>
      </trkpt>
      <trkpt lat="51.217496517354" lon="4.490897716423">
        <ele>1.2</ele>
        <time>2020-06-20T14:36:27Z</time>
      </trkpt>
      <trkpt lat="51.217506827091" lon="4.490818758925">
        <ele>0.6</ele>
        <time>2020-06-20T14:36:29Z</time>
      </trkpt>
      <trkpt lat="51.217484782694" lon="4.490440567597">
        <ele>1</ele>
        <time>2020-06-20T14:36:38Z</time>
      </trkpt>
      <trkpt lat="51.21740968087" lon="4.489601539407">
        <ele>0.2</ele>
        <time>2020-06-20T14:36:57Z</time>
      </trkpt>
      <trkpt lat="51.217306332043" lon="4.488740550639">
        <ele>0.8</ele>
        <time>2020-06-20T14:37:18Z</time>
      </trkpt>
      <trkpt lat="51.217201558293" lon="4.487900097526">
        <ele>0.4</ele>
        <time>2020-06-20T14:37:36Z</time>
      </trkpt>
      <trkpt lat="51.217150763979" lon="4.487104487578">
        <ele>0.6</ele>
        <time>2020-06-20T14:37:58Z</time>
      </trkpt>
      <trkpt lat="51.217115643818" lon="4.486722524395">
        <ele>1</ele>
        <time>2020-06-20T14:38:08Z</time>
      </trkpt>
      <trkpt lat="51.217074991603" lon="4.486688074786">
        <ele>1</ele>
        <time>2020-06-20T14:38:10Z</time>
      </trkpt>
      <trkpt lat="51.216534023777" lon="4.486901729417">
        <ele>0.4</ele>
        <time>2020-06-20T14:38:26Z</time>
      </trkpt>
      <trkpt lat="51.21599397796" lon="4.487018740741">
        <ele>0.6</ele>
        <time>2020-06-20T14:38:45Z</time>
      </trkpt>
      <trkpt lat="51.215559963178" lon="4.486760326764">
        <ele>1.2</ele>
        <time>2020-06-20T14:39:00Z</time>
      </trkpt>
      <trkpt lat="51.215556358961" lon="4.485866564767">
        <ele>1.6</ele>
        <time>2020-06-20T14:39:21Z</time>
      </trkpt>
      <trkpt lat="51.215596005348" lon="4.484971042571">
        <ele>1.6</ele>
        <time>2020-06-20T14:39:40Z</time>
      </trkpt>
      <trkpt lat="51.215623581799" lon="4.484080549515">
        <ele>0</ele>
        <time>2020-06-20T14:40:00Z</time>
      </trkpt>
      <trkpt lat="51.215594831882" lon="4.483206233526">
        <ele>0</ele>
        <time>2020-06-20T14:40:17Z</time>
      </trkpt>
      <trkpt lat="51.215571781657" lon="4.482821671954">
        <ele>0</ele>
        <time>2020-06-20T14:40:23Z</time>
      </trkpt>
      <trkpt lat="51.215565495232" lon="4.482351028269">
        <ele>0</ele>
        <time>2020-06-20T14:40:32Z</time>
      </trkpt>
      <trkpt lat="51.215615032261" lon="4.482306268923">
        <ele>0</ele>
        <time>2020-06-20T14:40:34Z</time>
      </trkpt>
      <trkpt lat="51.216182989805" lon="4.482367456793">
        <ele>0.2</ele>
        <time>2020-06-20T14:40:52Z</time>
      </trkpt>
      <trkpt lat="51.216282147682" lon="4.482343233102">
        <ele>0</ele>
        <time>2020-06-20T14:40:56Z</time>
      </trkpt>
      <trkpt lat="51.216280974216" lon="4.482291935874">
        <ele>0</ele>
        <time>2020-06-20T14:40:58Z</time>
      </trkpt>
      <trkpt lat="51.216253397765" lon="4.482249020546">
        <ele>0</ele>
        <time>2020-06-20T14:41:00Z</time>
      </trkpt>
      <trkpt lat="51.216234622309" lon="4.482141480769">
        <ele>0</ele>
        <time>2020-06-20T14:41:04Z</time>
      </trkpt>
      <trkpt lat="51.216223055287" lon="4.482066630402">
        <ele>0</ele>
        <time>2020-06-20T14:41:07Z</time>
      </trkpt>
      <trkpt lat="51.216750947349" lon="4.48194274592">
        <ele>5.6</ele>
        <time>2020-06-20T14:41:29Z</time>
      </trkpt>
      <trkpt lat="51.217045319677" lon="4.481388367054">
        <ele>3</ele>
        <time>2020-06-20T14:41:50Z</time>
      </trkpt>
      <trkpt lat="51.217112877791" lon="4.480521008042">
        <ele>0.2</ele>
        <time>2020-06-20T14:42:13Z</time>
      </trkpt>
      <trkpt lat="51.217172724557" lon="4.479662450025">
        <ele>3.2</ele>
        <time>2020-06-20T14:42:30Z</time>
      </trkpt>
      <trkpt lat="51.217214801695" lon="4.478804730198">
        <ele>0.2</ele>
        <time>2020-06-20T14:42:47Z</time>
      </trkpt>
      <trkpt lat="51.217192841117" lon="4.477911471115">
        <ele>0</ele>
        <time>2020-06-20T14:43:05Z</time>
      </trkpt>
      <trkpt lat="51.216715575731" lon="4.477546942284">
        <ele>0</ele>
        <time>2020-06-20T14:43:22Z</time>
      </trkpt>
      <trkpt lat="51.21666704453" lon="4.477555827098">
        <ele>0</ele>
        <time>2020-06-20T14:43:24Z</time>
      </trkpt>
      <trkpt lat="51.216650867463" lon="4.477566639749">
        <ele>0</ele>
        <time>2020-06-20T14:44:03Z</time>
      </trkpt>
      <trkpt lat="51.216621530813" lon="4.477589270879">
        <ele>0</ele>
        <time>2020-06-20T14:44:08Z</time>
      </trkpt>
      <trkpt lat="51.21609623714" lon="4.477738217242">
        <ele>0</ele>
        <time>2020-06-20T14:44:22Z</time>
      </trkpt>
      <trkpt lat="51.216027589379" lon="4.477832681255">
        <ele>0</ele>
        <time>2020-06-20T14:44:24Z</time>
      </trkpt>
      <trkpt lat="51.215671107172" lon="4.478514129725">
        <ele>0.2</ele>
        <time>2020-06-20T14:44:38Z</time>
      </trkpt>
      <trkpt lat="51.215201385496" lon="4.478843286938">
        <ele>0</ele>
        <time>2020-06-20T14:44:54Z</time>
      </trkpt>
      <trkpt lat="51.214716911676" lon="4.478480518306">
        <ele>0</ele>
        <time>2020-06-20T14:45:10Z</time>
      </trkpt>
      <trkpt lat="51.214280466143" lon="4.477919098644">
        <ele>0</ele>
        <time>2020-06-20T14:45:27Z</time>
      </trkpt>
      <trkpt lat="51.213851983415" lon="4.477374275144">
        <ele>0</ele>
        <time>2020-06-20T14:45:42Z</time>
      </trkpt>
      <trkpt lat="51.213631874721" lon="4.476588472019">
        <ele>0.8</ele>
        <time>2020-06-20T14:45:59Z</time>
      </trkpt>
      <trkpt lat="51.213475552286" lon="4.475723292301">
        <ele>4.2</ele>
        <time>2020-06-20T14:46:16Z</time>
      </trkpt>
      <trkpt lat="51.213373293106" lon="4.47486004042">
        <ele>5.4</ele>
        <time>2020-06-20T14:46:32Z</time>
      </trkpt>
      <trkpt lat="51.213184532718" lon="4.474043140446">
        <ele>5.2</ele>
        <time>2020-06-20T14:46:49Z</time>
      </trkpt>
      <trkpt lat="51.213677891352" lon="4.473783217727">
        <ele>7.8</ele>
        <time>2020-06-20T14:47:07Z</time>
      </trkpt>
      <trkpt lat="51.214206034871" lon="4.473541483731">
        <ele>4.4</ele>
        <time>2020-06-20T14:47:30Z</time>
      </trkpt>
      <trkpt lat="51.214276191374" lon="4.472723913205">
        <ele>4.4</ele>
        <time>2020-06-20T14:47:55Z</time>
      </trkpt>
      <trkpt lat="51.214123054061" lon="4.471933332397">
        <ele>2.4</ele>
        <time>2020-06-20T14:48:17Z</time>
      </trkpt>
      <trkpt lat="51.214229755648" lon="4.471146523444">
        <ele>2.6</ele>
        <time>2020-06-20T14:48:43Z</time>
      </trkpt>
      <trkpt lat="51.214051640273" lon="4.470780150595">
        <ele>0.8</ele>
        <time>2020-06-20T14:48:57Z</time>
      </trkpt>
      <trkpt lat="51.214142500069" lon="4.469959562585">
        <ele>0</ele>
        <time>2020-06-20T14:49:22Z</time>
      </trkpt>
      <trkpt lat="51.214224810327" lon="4.469802821055">
        <ele>5.2</ele>
        <time>2020-06-20T14:49:39Z</time>
      </trkpt>
      <trkpt lat="51.214514404972" lon="4.469057921602">
        <ele>0</ele>
        <time>2020-06-20T14:50:00Z</time>
      </trkpt>
      <trkpt lat="51.214815147544" lon="4.468392985475">
        <ele>5.2</ele>
        <time>2020-06-20T14:50:20Z</time>
      </trkpt>
      <trkpt lat="51.215363323804" lon="4.468442606323">
        <ele>0.6</ele>
        <time>2020-06-20T14:50:38Z</time>
      </trkpt>
      <trkpt lat="51.215845199235" lon="4.468087968134">
        <ele>0</ele>
        <time>2020-06-20T14:50:56Z</time>
      </trkpt>
      <trkpt lat="51.216391112382" lon="4.46786031573">
        <ele>0</ele>
        <time>2020-06-20T14:51:14Z</time>
      </trkpt>
      <trkpt lat="51.2169545437" lon="4.467832152546">
        <ele>0</ele>
        <time>2020-06-20T14:51:29Z</time>
      </trkpt>
      <trkpt lat="51.217546054383" lon="4.468438499192">
        <ele>4.4</ele>
        <time>2020-06-20T14:51:48Z</time>
      </trkpt>
      <trkpt lat="51.217583605295" lon="4.46835065688">
        <ele>5</ele>
        <time>2020-06-20T14:51:50Z</time>
      </trkpt>
      <trkpt lat="51.217661389327" lon="4.467497714736">
        <ele>1</ele>
        <time>2020-06-20T14:52:06Z</time>
      </trkpt>
      <trkpt lat="51.217728947441" lon="4.466636893606">
        <ele>0</ele>
        <time>2020-06-20T14:52:24Z</time>
      </trkpt>
      <trkpt lat="51.217767671819" lon="4.465754614812">
        <ele>0</ele>
        <time>2020-06-20T14:52:42Z</time>
      </trkpt>
      <trkpt lat="51.217806731473" lon="4.464893039311">
        <ele>0</ele>
        <time>2020-06-20T14:53:04Z</time>
      </trkpt>
      <trkpt lat="51.217849982077" lon="4.464037079683">
        <ele>0</ele>
        <time>2020-06-20T14:53:21Z</time>
      </trkpt>
      <trkpt lat="51.217898429459" lon="4.463129739008">
        <ele>0</ele>
        <time>2020-06-20T14:53:36Z</time>
      </trkpt>
      <trkpt lat="51.217867584067" lon="4.462279898167">
        <ele>0</ele>
        <time>2020-06-20T14:53:51Z</time>
      </trkpt>
      <trkpt lat="51.217894741423" lon="4.461418322666">
        <ele>1.4</ele>
        <time>2020-06-20T14:54:10Z</time>
      </trkpt>
      <trkpt lat="51.217955091103" lon="4.460541659745">
        <ele>0</ele>
        <time>2020-06-20T14:54:30Z</time>
      </trkpt>
      <trkpt lat="51.218024157959" lon="4.45967706676">
        <ele>0</ele>
        <time>2020-06-20T14:54:48Z</time>
      </trkpt>
      <trkpt lat="51.218047208184" lon="4.458811635585">
        <ele>0</ele>
        <time>2020-06-20T14:55:06Z</time>
      </trkpt>
      <trkpt lat="51.218112335547" lon="4.457959196355">
        <ele>0</ele>
        <time>2020-06-20T14:55:26Z</time>
      </trkpt>
      <trkpt lat="51.218155083237" lon="4.457083287805">
        <ele>0</ele>
        <time>2020-06-20T14:55:40Z</time>
      </trkpt>
      <trkpt lat="51.218186766819" lon="4.456171839999">
        <ele>0</ele>
        <time>2020-06-20T14:55:56Z</time>
      </trkpt>
      <trkpt lat="51.21820847594" lon="4.455283945332">
        <ele>0</ele>
        <time>2020-06-20T14:56:12Z</time>
      </trkpt>
      <trkpt lat="51.218280057366" lon="4.454400157796">
        <ele>0</ele>
        <time>2020-06-20T14:56:28Z</time>
      </trkpt>
      <trkpt lat="51.21828978037" lon="4.453528188739">
        <ele>0</ele>
        <time>2020-06-20T14:56:42Z</time>
      </trkpt>
      <trkpt lat="51.218304364876" lon="4.452623781729">
        <ele>1</ele>
        <time>2020-06-20T14:56:56Z</time>
      </trkpt>
      <trkpt lat="51.218427662625" lon="4.45189782537">
        <ele>0.6</ele>
        <time>2020-06-20T14:57:10Z</time>
      </trkpt>
      <trkpt lat="51.218778193683" lon="4.45178886067">
        <ele>0</ele>
        <time>2020-06-20T14:57:18Z</time>
      </trkpt>
      <trkpt lat="51.219268618652" lon="4.452122292652">
        <ele>0</ele>
        <time>2020-06-20T14:57:39Z</time>
      </trkpt>
      <trkpt lat="51.219830960323" lon="4.452043921887">
        <ele>1.2</ele>
        <time>2020-06-20T14:57:59Z</time>
      </trkpt>
      <trkpt lat="51.220392212347" lon="4.451969406796">
        <ele>1.6</ele>
        <time>2020-06-20T14:58:18Z</time>
      </trkpt>
      <trkpt lat="51.220944914833" lon="4.451870835652">
        <ele>9.8</ele>
        <time>2020-06-20T14:58:33Z</time>
      </trkpt>
      <trkpt lat="51.221506585952" lon="4.451703784385">
        <ele>9.4</ele>
        <time>2020-06-20T14:58:47Z</time>
      </trkpt>
      <trkpt lat="51.222003381165" lon="4.45135300187">
        <ele>3.8</ele>
        <time>2020-06-20T14:58:58Z</time>
      </trkpt>
      <trkpt lat="51.222540744774" lon="4.451124259819">
        <ele>2</ele>
        <time>2020-06-20T14:59:13Z</time>
      </trkpt>
      <trkpt lat="51.223090178319" lon="4.451175137952">
        <ele>0</ele>
        <time>2020-06-20T14:59:28Z</time>
      </trkpt>
      <trkpt lat="51.223624356806" lon="4.451348978558">
        <ele>0</ele>
        <time>2020-06-20T14:59:44Z</time>
      </trkpt>
      <trkpt lat="51.223894840719" lon="4.451408992962">
        <ele>0</ele>
        <time>2020-06-20T14:59:51Z</time>
      </trkpt>
      <trkpt lat="51.22402802911" lon="4.451375800638">
        <ele>0</ele>
        <time>2020-06-20T14:59:54Z</time>
      </trkpt>
      <trkpt lat="51.224451901793" lon="4.450853943544">
        <ele>0</ele>
        <time>2020-06-20T15:00:09Z</time>
      </trkpt>
      <trkpt lat="51.224843504161" lon="4.450242232482">
        <ele>0</ele>
        <time>2020-06-20T15:00:27Z</time>
      </trkpt>
      <trkpt lat="51.225160507619" lon="4.44983001064">
        <ele>0</ele>
        <time>2020-06-20T15:00:43Z</time>
      </trkpt>
      <trkpt lat="51.225324876678" lon="4.449748035658">
        <ele>0</ele>
        <time>2020-06-20T15:00:47Z</time>
      </trkpt>
      <trkpt lat="51.225875483689" lon="4.449655499482">
        <ele>0.8</ele>
        <time>2020-06-20T15:01:05Z</time>
      </trkpt>
      <trkpt lat="51.22625761451" lon="4.44901948091">
        <ele>0</ele>
        <time>2020-06-20T15:01:22Z</time>
      </trkpt>
      <trkpt lat="51.226320814036" lon="4.448900960844">
        <ele>0</ele>
        <time>2020-06-20T15:01:25Z</time>
      </trkpt>
      <trkpt lat="51.226371273074" lon="4.448940439593">
        <ele>0</ele>
        <time>2020-06-20T15:01:27Z</time>
      </trkpt>
      <trkpt lat="51.226600266582" lon="4.449350398322">
        <ele>0</ele>
        <time>2020-06-20T15:01:38Z</time>
      </trkpt>
      <trkpt lat="51.22702791112" lon="4.448833905644">
        <ele>10.2</ele>
        <time>2020-06-20T15:02:04Z</time>
      </trkpt>
      <trkpt lat="51.227438456582" lon="4.448217249261">
        <ele>8.4</ele>
        <time>2020-06-20T15:02:24Z</time>
      </trkpt>
      <trkpt lat="51.227827209104" lon="4.447626241492">
        <ele>1.8</ele>
        <time>2020-06-20T15:02:43Z</time>
      </trkpt>
      <trkpt lat="51.228168771529" lon="4.44707907106">
        <ele>1.2</ele>
        <time>2020-06-20T15:03:02Z</time>
      </trkpt>
      <trkpt lat="51.228208753192" lon="4.447156771273">
        <ele>3.8</ele>
        <time>2020-06-20T15:03:07Z</time>
      </trkpt>
      <trkpt lat="51.228254015452" lon="4.447143863147">
        <ele>6</ele>
        <time>2020-06-20T15:03:10Z</time>
      </trkpt>
      <trkpt lat="51.228625585079" lon="4.447821623581">
        <ele>3.2</ele>
        <time>2020-06-20T15:03:30Z</time>
      </trkpt>
      <trkpt lat="51.229013415592" lon="4.448434927204">
        <ele>0.2</ele>
        <time>2020-06-20T15:03:51Z</time>
      </trkpt>
      <trkpt lat="51.229011990669" lon="4.448574988753">
        <ele>0</ele>
        <time>2020-06-20T15:03:58Z</time>
      </trkpt>
      <trkpt lat="51.228892297137" lon="4.448717145777">
        <ele>0</ele>
        <time>2020-06-20T15:04:05Z</time>
      </trkpt>
      <trkpt lat="51.228804957739" lon="4.448780010027">
        <ele>0</ele>
        <time>2020-06-20T15:05:00Z</time>
      </trkpt>
      <trkpt lat="51.228795821468" lon="4.448817058025">
        <ele>0</ele>
        <time>2020-06-20T15:05:02Z</time>
      </trkpt>
      <trkpt lat="51.228488373376" lon="4.449328353925">
        <ele>0</ele>
        <time>2020-06-20T15:05:27Z</time>
      </trkpt>
    </trkseg>
  </trk>
</gpx>